sensor_id;sensor_type;location;lat;lon;timestamp;temperature;humidity
53286;DHT22;39171;45.550;12.074;2023-01-09T00:05:37;14.70;72.10
53286;DHT22;39171;45.550;12.074;2023-01-09T00:11:39;14.70;72.20
53286;DHT22;39171;45.550;12.074;2023-01-09T00:17:40;14.60;72.30
53286;DHT22;39171;45.550;12.074;2023-01-09T00:23:41;14.70;72.20
53286;DHT22;39171;45.550;12.074;2023-01-09T00:29:42;14.60;72.20
53286;DHT22;39171;45.550;12.074;2023-01-09T00:35:46;14.60;72.30
53286;DHT22;39171;45.550;12.074;2023-01-09T00:41:48;14.60;72.10
53286;DHT22;39171;45.550;12.074;2023-01-09T00:47:50;14.60;72.30
53286;DHT22;39171;45.550;12.074;2023-01-09T00:53:52;14.60;72.40
53286;DHT22;39171;45.550;12.074;2023-01-09T00:59:53;14.60;72.30
53286;DHT22;39171;45.550;12.074;2023-01-09T01:05:54;14.60;72.30
53286;DHT22;39171;45.550;12.074;2023-01-09T01:12:14;14.60;72.40
53286;DHT22;39171;45.550;12.074;2023-01-09T01:18:15;14.60;72.40
53286;DHT22;39171;45.550;12.074;2023-01-09T01:24:17;14.60;72.40
53286;DHT22;39171;45.550;12.074;2023-01-09T01:30:19;14.70;72.30
53286;DHT22;39171;45.550;12.074;2023-01-09T01:36:21;14.60;72.40
53286;DHT22;39171;45.550;12.074;2023-01-09T01:42:22;14.60;72.40
53286;DHT22;39171;45.550;12.074;2023-01-09T01:48:24;14.60;72.30
53286;DHT22;39171;45.550;12.074;2023-01-09T01:54:27;14.60;72.30
53286;DHT22;39171;45.550;12.074;2023-01-09T02:00:30;14.70;72.20
53286;DHT22;39171;45.550;12.074;2023-01-09T02:06:32;14.70;72.40
53286;DHT22;39171;45.550;12.074;2023-01-09T02:12:33;14.60;72.40
53286;DHT22;39171;45.550;12.074;2023-01-09T02:25:07;14.60;72.30
53286;DHT22;39171;45.550;12.074;2023-01-09T02:31:18;14.60;72.30
53286;DHT22;39171;45.550;12.074;2023-01-09T02:43:26;14.70;72.40
53286;DHT22;39171;45.550;12.074;2023-01-09T02:49:27;14.70;72.30
53286;DHT22;39171;45.550;12.074;2023-01-09T03:08:34;14.60;72.20
53286;DHT22;39171;45.550;12.074;2023-01-09T03:14:38;14.60;72.40
53286;DHT22;39171;45.550;12.074;2023-01-09T03:20:40;14.60;72.20
53286;DHT22;39171;45.550;12.074;2023-01-09T03:26:42;14.60;72.40
53286;DHT22;39171;45.550;12.074;2023-01-09T03:32:43;14.70;72.40
53286;DHT22;39171;45.550;12.074;2023-01-09T03:38:45;14.60;72.40
53286;DHT22;39171;45.550;12.074;2023-01-09T03:44:46;14.60;72.40
53286;DHT22;39171;45.550;12.074;2023-01-09T03:50:48;14.60;72.50
53286;DHT22;39171;45.550;12.074;2023-01-09T03:56:49;14.60;72.40
53286;DHT22;39171;45.550;12.074;2023-01-09T04:02:50;14.60;72.60
53286;DHT22;39171;45.550;12.074;2023-01-09T04:08:52;14.60;72.70
53286;DHT22;39171;45.550;12.074;2023-01-09T04:14:53;14.60;72.70
53286;DHT22;39171;45.550;12.074;2023-01-09T04:20:54;14.70;72.60
53286;DHT22;39171;45.550;12.074;2023-01-09T04:26:55;14.60;72.50
53286;DHT22;39171;45.550;12.074;2023-01-09T04:32:56;14.60;72.50
53286;DHT22;39171;45.550;12.074;2023-01-09T04:38:58;14.60;72.60
53286;DHT22;39171;45.550;12.074;2023-01-09T04:45:06;14.60;72.70
53286;DHT22;39171;45.550;12.074;2023-01-09T04:51:08;14.60;72.80
53286;DHT22;39171;45.550;12.074;2023-01-09T04:57:09;14.60;72.50
53286;DHT22;39171;45.550;12.074;2023-01-09T05:03:10;14.60;72.60
53286;DHT22;39171;45.550;12.074;2023-01-09T05:09:11;14.60;72.60
53286;DHT22;39171;45.550;12.074;2023-01-09T05:15:12;14.60;72.70
53286;DHT22;39171;45.550;12.074;2023-01-09T05:21:14;14.60;72.60
53286;DHT22;39171;45.550;12.074;2023-01-09T05:27:15;14.60;72.60
53286;DHT22;39171;45.550;12.074;2023-01-09T05:33:19;14.60;72.60
53286;DHT22;39171;45.550;12.074;2023-01-09T05:39:23;14.60;72.70
53286;DHT22;39171;45.550;12.074;2023-01-09T05:45:24;14.60;72.80
53286;DHT22;39171;45.550;12.074;2023-01-09T05:51:27;14.60;72.70
53286;DHT22;39171;45.550;12.074;2023-01-09T05:57:28;14.50;72.70
53286;DHT22;39171;45.550;12.074;2023-01-09T06:03:30;14.60;72.70
53286;DHT22;39171;45.550;12.074;2023-01-09T06:09:31;14.60;72.80
53286;DHT22;39171;45.550;12.074;2023-01-09T06:15:33;14.50;72.60
53286;DHT22;39171;45.550;12.074;2023-01-09T06:21:34;14.60;72.80
53286;DHT22;39171;45.550;12.074;2023-01-09T06:27:35;14.60;73.00
53286;DHT22;39171;45.550;12.074;2023-01-09T06:33:36;14.50;72.80
53286;DHT22;39171;45.550;12.074;2023-01-09T06:39:37;14.60;72.80
53286;DHT22;39171;45.550;12.074;2023-01-09T06:45:40;14.60;72.90
53286;DHT22;39171;45.550;12.074;2023-01-09T06:51:41;14.60;72.90
53286;DHT22;39171;45.550;12.074;2023-01-09T06:57:42;14.60;72.80
53286;DHT22;39171;45.550;12.074;2023-01-09T07:03:43;14.60;72.80
53286;DHT22;39171;45.550;12.074;2023-01-09T07:09:46;14.50;72.80
53286;DHT22;39171;45.550;12.074;2023-01-09T07:15:48;14.50;72.80
53286;DHT22;39171;45.550;12.074;2023-01-09T07:21:49;14.50;73.00
53286;DHT22;39171;45.550;12.074;2023-01-09T07:27:51;14.50;72.90
53286;DHT22;39171;45.550;12.074;2023-01-09T07:33:52;14.50;73.10
53286;DHT22;39171;45.550;12.074;2023-01-09T07:39:53;14.50;73.00
53286;DHT22;39171;45.550;12.074;2023-01-09T07:45:54;14.60;72.70
53286;DHT22;39171;45.550;12.074;2023-01-09T07:51:55;14.80;72.30
53286;DHT22;39171;45.550;12.074;2023-01-09T07:57:56;15.10;72.00
53286;DHT22;39171;45.550;12.074;2023-01-09T08:03:57;15.50;71.70
53286;DHT22;39171;45.550;12.074;2023-01-09T08:09:58;15.80;71.40
53286;DHT22;39171;45.550;12.074;2023-01-09T08:16:00;16.10;71.10
53286;DHT22;39171;45.550;12.074;2023-01-09T08:22:01;16.30;70.80
53286;DHT22;39171;45.550;12.074;2023-01-09T08:28:02;16.60;70.60
53286;DHT22;39171;45.550;12.074;2023-01-09T08:34:03;16.80;70.20
53286;DHT22;39171;45.550;12.074;2023-01-09T08:40:04;16.90;69.90
53286;DHT22;39171;45.550;12.074;2023-01-09T08:46:09;17.10;69.60
53286;DHT22;39171;45.550;12.074;2023-01-09T08:52:34;17.20;69.30
53286;DHT22;39171;45.550;12.074;2023-01-09T08:58:35;17.30;69.10
53286;DHT22;39171;45.550;12.074;2023-01-09T09:04:37;17.30;68.90
53286;DHT22;39171;45.550;12.074;2023-01-09T09:10:38;17.40;68.60
53286;DHT22;39171;45.550;12.074;2023-01-09T09:16:39;17.30;68.50
53286;DHT22;39171;45.550;12.074;2023-01-09T09:22:40;17.40;68.50
53286;DHT22;39171;45.550;12.074;2023-01-09T09:28:41;17.30;68.30
53286;DHT22;39171;45.550;12.074;2023-01-09T09:34:43;17.30;68.20
53286;DHT22;39171;45.550;12.074;2023-01-09T09:46:50;17.30;68.10
53286;DHT22;39171;45.550;12.074;2023-01-09T09:59:01;17.20;68.10
53286;DHT22;39171;45.550;12.074;2023-01-09T10:05:05;17.20;68.00
53286;DHT22;39171;45.550;12.074;2023-01-09T10:11:11;17.20;68.10
53286;DHT22;39171;45.550;12.074;2023-01-09T10:17:25;17.20;68.00
53286;DHT22;39171;45.550;12.074;2023-01-09T10:29:54;17.20;68.00
53286;DHT22;39171;45.550;12.074;2023-01-09T10:48:18;17.10;68.20
53286;DHT22;39171;45.550;12.074;2023-01-09T10:54:21;17.10;68.00
53286;DHT22;39171;45.550;12.074;2023-01-09T11:00:23;17.20;68.00
53286;DHT22;39171;45.550;12.074;2023-01-09T11:06:28;17.20;67.80
53286;DHT22;39171;45.550;12.074;2023-01-09T11:12:32;17.20;67.70
53286;DHT22;39171;45.550;12.074;2023-01-09T11:18:34;17.20;67.80
53286;DHT22;39171;45.550;12.074;2023-01-09T11:24:37;17.10;67.70
53286;DHT22;39171;45.550;12.074;2023-01-09T11:31:20;17.20;67.70
53286;DHT22;39171;45.550;12.074;2023-01-09T11:37:09;17.10;67.70
53286;DHT22;39171;45.550;12.074;2023-01-09T11:43:22;17.10;67.70
53286;DHT22;39171;45.550;12.074;2023-01-09T11:49:26;17.10;67.80
53286;DHT22;39171;45.550;12.074;2023-01-09T11:55:28;17.00;67.70
53286;DHT22;39171;45.550;12.074;2023-01-09T12:26:16;17.70;67.30
53286;DHT22;39171;45.550;12.074;2023-01-09T12:57:24;18.40;66.30
53286;DHT22;39171;45.550;12.074;2023-01-09T13:09:55;18.50;65.80
53286;DHT22;39171;45.550;12.074;2023-01-09T13:15:59;18.40;65.60
53286;DHT22;39171;45.550;12.074;2023-01-09T13:22:02;18.30;65.80
53286;DHT22;39171;45.550;12.074;2023-01-09T13:28:06;18.20;65.80
53286;DHT22;39171;45.550;12.074;2023-01-09T13:34:19;18.20;66.00
53286;DHT22;39171;45.550;12.074;2023-01-09T13:40:26;18.20;66.00
53286;DHT22;39171;45.550;12.074;2023-01-09T13:46:40;18.00;66.10
53286;DHT22;39171;45.550;12.074;2023-01-09T13:52:43;18.00;66.30
53286;DHT22;39171;45.550;12.074;2023-01-09T14:04:55;18.00;66.20
53286;DHT22;39171;45.550;12.074;2023-01-09T14:10:57;18.20;66.10
53286;DHT22;39171;45.550;12.074;2023-01-09T14:17:00;18.30;65.90
53286;DHT22;39171;45.550;12.074;2023-01-09T14:23:20;18.40;65.60
53286;DHT22;39171;45.550;12.074;2023-01-09T14:35:37;18.50;65.10
53286;DHT22;39171;45.550;12.074;2023-01-09T14:41:49;18.60;65.00
53286;DHT22;39171;45.550;12.074;2023-01-09T14:47:59;18.50;64.90
53286;DHT22;39171;45.550;12.074;2023-01-09T14:54:03;18.50;64.90
53286;DHT22;39171;45.550;12.074;2023-01-09T15:06:17;18.40;64.90
53286;DHT22;39171;45.550;12.074;2023-01-09T15:12:20;18.30;64.70
53286;DHT22;39171;45.550;12.074;2023-01-09T15:18:23;18.30;64.90
53286;DHT22;39171;45.550;12.074;2023-01-09T15:24:25;18.30;65.00
53286;DHT22;39171;45.550;12.074;2023-01-09T15:30:30;18.20;65.00
53286;DHT22;39171;45.550;12.074;2023-01-09T15:36:34;18.20;65.00
53286;DHT22;39171;45.550;12.074;2023-01-09T15:42:40;18.20;65.20
53286;DHT22;39171;45.550;12.074;2023-01-09T15:48:55;18.10;65.40
53286;DHT22;39171;45.550;12.074;2023-01-09T15:54:56;18.00;65.50
53286;DHT22;39171;45.550;12.074;2023-01-09T16:01:02;18.00;65.30
53286;DHT22;39171;45.550;12.074;2023-01-09T16:07:08;17.90;65.50
53286;DHT22;39171;45.550;12.074;2023-01-09T16:13:12;17.90;65.40
53286;DHT22;39171;45.550;12.074;2023-01-09T16:19:28;17.80;65.60
53286;DHT22;39171;45.550;12.074;2023-01-09T16:25:37;17.80;65.70
53286;DHT22;39171;45.550;12.074;2023-01-09T16:31:41;17.80;65.90
53286;DHT22;39171;45.550;12.074;2023-01-09T16:37:42;17.70;65.80
53286;DHT22;39171;45.550;12.074;2023-01-09T16:43:47;17.70;65.90
53286;DHT22;39171;45.550;12.074;2023-01-09T17:20:02;17.50;65.60
53286;DHT22;39171;45.550;12.074;2023-01-09T17:26:08;17.50;65.60
53286;DHT22;39171;45.550;12.074;2023-01-09T17:32:29;17.40;65.70
53286;DHT22;39171;45.550;12.074;2023-01-09T17:38:31;17.40;65.80
53286;DHT22;39171;45.550;12.074;2023-01-09T17:44:38;17.30;65.90
53286;DHT22;39171;45.550;12.074;2023-01-09T17:50:39;17.30;65.90
53286;DHT22;39171;45.550;12.074;2023-01-09T17:56:42;17.30;66.10
53286;DHT22;39171;45.550;12.074;2023-01-09T18:02:44;17.30;66.10
53286;DHT22;39171;45.550;12.074;2023-01-09T18:08:46;17.30;66.00
53286;DHT22;39171;45.550;12.074;2023-01-09T18:14:47;17.20;66.00
53286;DHT22;39171;45.550;12.074;2023-01-09T18:20:53;17.20;66.10
53286;DHT22;39171;45.550;12.074;2023-01-09T18:26:54;17.20;66.10
53286;DHT22;39171;45.550;12.074;2023-01-09T18:32:55;17.20;66.20
53286;DHT22;39171;45.550;12.074;2023-01-09T18:38:57;17.20;66.40
53286;DHT22;39171;45.550;12.074;2023-01-09T18:44:59;17.20;66.50
53286;DHT22;39171;45.550;12.074;2023-01-09T18:51:05;17.10;66.60
53286;DHT22;39171;45.550;12.074;2023-01-09T18:57:06;17.10;66.60
53286;DHT22;39171;45.550;12.074;2023-01-09T19:03:08;17.10;66.60
53286;DHT22;39171;45.550;12.074;2023-01-09T19:09:13;17.00;66.60
53286;DHT22;39171;45.550;12.074;2023-01-09T19:15:14;17.00;66.80
53286;DHT22;39171;45.550;12.074;2023-01-09T19:21:17;17.00;66.80
53286;DHT22;39171;45.550;12.074;2023-01-09T19:27:19;16.90;66.90
53286;DHT22;39171;45.550;12.074;2023-01-09T19:33:20;16.90;66.80
53286;DHT22;39171;45.550;12.074;2023-01-09T19:39:25;16.90;66.90
53286;DHT22;39171;45.550;12.074;2023-01-09T19:45:27;16.80;66.90
53286;DHT22;39171;45.550;12.074;2023-01-09T19:51:28;16.80;67.10
53286;DHT22;39171;45.550;12.074;2023-01-09T19:57:29;16.80;67.00
53286;DHT22;39171;45.550;12.074;2023-01-09T20:03:30;16.70;67.10
53286;DHT22;39171;45.550;12.074;2023-01-09T20:09:31;16.70;67.00
53286;DHT22;39171;45.550;12.074;2023-01-09T20:15:33;16.70;67.20
53286;DHT22;39171;45.550;12.074;2023-01-09T20:21:34;16.70;67.10
53286;DHT22;39171;45.550;12.074;2023-01-09T20:35:02;16.60;67.70
53286;DHT22;39171;45.550;12.074;2023-01-09T20:41:13;16.60;67.90
53286;DHT22;39171;45.550;12.074;2023-01-09T20:47:24;16.50;67.90
53286;DHT22;39171;45.550;12.074;2023-01-09T20:53:25;16.60;68.00
53286;DHT22;39171;45.550;12.074;2023-01-09T20:59:26;16.50;67.90
53286;DHT22;39171;45.550;12.074;2023-01-09T21:05:31;16.50;67.80
53286;DHT22;39171;45.550;12.074;2023-01-09T21:11:34;16.40;67.70
53286;DHT22;39171;45.550;12.074;2023-01-09T21:17:42;16.40;67.80
53286;DHT22;39171;45.550;12.074;2023-01-09T21:23:47;16.40;67.80
53286;DHT22;39171;45.550;12.074;2023-01-09T21:29:49;16.40;67.90
53286;DHT22;39171;45.550;12.074;2023-01-09T21:42:23;16.30;68.10
53286;DHT22;39171;45.550;12.074;2023-01-09T21:48:43;16.30;68.60
53286;DHT22;39171;45.550;12.074;2023-01-09T21:54:45;16.30;68.70
53286;DHT22;39171;45.550;12.074;2023-01-09T22:00:46;16.30;68.80
53286;DHT22;39171;45.550;12.074;2023-01-09T22:06:49;16.30;68.90
53286;DHT22;39171;45.550;12.074;2023-01-09T22:12:50;16.30;69.10
53286;DHT22;39171;45.550;12.074;2023-01-09T22:19:11;16.20;69.10
53286;DHT22;39171;45.550;12.074;2023-01-09T22:25:12;16.20;69.40
53286;DHT22;39171;45.550;12.074;2023-01-09T22:31:17;16.20;69.50
53286;DHT22;39171;45.550;12.074;2023-01-09T22:37:19;16.20;69.30
53286;DHT22;39171;45.550;12.074;2023-01-09T22:43:20;16.20;69.10
53286;DHT22;39171;45.550;12.074;2023-01-09T22:49:21;16.20;69.30
53286;DHT22;39171;45.550;12.074;2023-01-09T22:55:23;16.20;69.30
53286;DHT22;39171;45.550;12.074;2023-01-09T23:01:24;16.20;69.30
53286;DHT22;39171;45.550;12.074;2023-01-09T23:07:25;16.10;69.40
53286;DHT22;39171;45.550;12.074;2023-01-09T23:13:26;16.10;69.60
53286;DHT22;39171;45.550;12.074;2023-01-09T23:19:28;16.10;69.70
53286;DHT22;39171;45.550;12.074;2023-01-09T23:25:32;16.00;69.80
53286;DHT22;39171;45.550;12.074;2023-01-09T23:31:34;16.00;69.90
53286;DHT22;39171;45.550;12.074;2023-01-09T23:37:35;16.00;70.00
53286;DHT22;39171;45.550;12.074;2023-01-09T23:43:36;16.10;70.00
53286;DHT22;39171;45.550;12.074;2023-01-09T23:49:38;16.00;70.10
53286;DHT22;39171;45.550;12.074;2023-01-09T23:55:39;16.00;70.10
